createdAt,value
2023-01-29T00:00:12.863Z,101795.56
2023-01-29T00:02:39.988Z,101796.34
2023-01-29T00:05:26.409Z,101796.34
2023-01-29T00:07:55.156Z,101782.06
2023-01-29T00:10:22.654Z,101789.13
2023-01-29T00:12:49.308Z,101784.66
2023-01-29T00:15:19.027Z,101785.53
2023-01-29T00:17:45.626Z,101784.66
2023-01-29T00:20:13.035Z,101781.06
2023-01-29T00:22:42.338Z,101779.25
2023-01-29T00:25:10.015Z,101769.59
2023-01-29T00:27:37.223Z,101775.72
2023-01-29T00:30:12.912Z,101776.56
2023-01-29T00:32:43.430Z,101782.78
2023-01-29T00:35:10.945Z,101775.56
2023-01-29T00:37:38.487Z,101780.81
2023-01-29T00:40:06.466Z,101766.63
2023-01-29T00:42:53.606Z,101767.44
2023-01-29T00:45:20.557Z,101764.75
2023-01-29T00:47:47.376Z,101761.31
2023-01-29T00:50:14.657Z,101764.75
2023-01-29T00:52:42.584Z,101762.88
2023-01-29T00:55:11.744Z,101754.78
2023-01-29T00:57:39.459Z,101758.41
2023-01-29T01:00:13.377Z,101749.34
2023-01-29T01:02:59.024Z,101746.66
2023-01-29T01:05:25.902Z,101752.78
2023-01-29T01:07:57.749Z,101755.44
2023-01-29T01:10:33.661Z,101762.56
2023-01-29T01:13:10.380Z,101764.22
2023-01-29T01:15:40.595Z,101764.22
2023-01-29T01:18:10.347Z,101765.94
2023-01-29T01:20:37.370Z,101755.34
2023-01-29T01:23:05.220Z,101747.34
2023-01-29T01:25:32.068Z,101756.31
2023-01-29T01:28:02.890Z,101760.78
2023-01-29T01:30:30.168Z,101752.78
2023-01-29T01:32:56.879Z,101745.56
2023-01-29T01:35:23.696Z,101744.56
2023-01-29T01:37:50.401Z,101740.16
2023-01-29T01:40:24.164Z,101732.16
2023-01-29T01:42:58.062Z,101719.78
2023-01-29T01:45:37.542Z,101710.94
2023-01-29T01:48:23.601Z,101706.38
2023-01-29T01:51:05.257Z,101707.31
2023-01-29T01:53:44.975Z,101723.53
2023-01-29T01:56:26.444Z,101719.00
2023-01-29T01:58:59.342Z,101725.97
2023-01-29T02:01:28.728Z,101725.91
2023-01-29T02:04:35.047Z,101716.94
2023-01-29T02:07:28.739Z,101723.22
2023-01-29T02:10:12.437Z,101714.13
2023-01-29T02:12:43.106Z,101707.00
2023-01-29T02:15:11.113Z,101702.53
2023-01-29T02:17:38.641Z,101690.03
2023-01-29T02:20:29.156Z,101693.56
2023-01-29T02:24:09.975Z,101690.03
2023-01-29T02:27:07.858Z,101677.44
2023-01-29T02:30:09.501Z,101671.84
2023-01-29T02:33:00.974Z,101670.13
2023-01-29T02:35:46.675Z,101669.97
2023-01-29T02:38:55.519Z,101664.47
2023-01-29T02:41:34.040Z,101660.88
2023-01-29T02:44:25.147Z,101648.31
2023-01-29T02:47:13.990Z,101646.59
2023-01-29T02:50:15.542Z,101640.34
2023-01-29T02:52:59.937Z,101633.84
2023-01-29T02:55:42.202Z,101627.53
2023-01-29T02:58:41.323Z,101629.31
2023-01-29T03:01:18.847Z,101616.88
2023-01-29T03:04:05.231Z,101619.28
2023-01-29T03:06:54.274Z,101618.31
2023-01-29T03:09:49.553Z,101611.94
2023-01-29T03:12:37.012Z,101613.84
2023-01-29T03:15:16.906Z,101614.88
2023-01-29T03:18:09.636Z,101611.53
2023-01-29T03:20:55.527Z,101623.31
2023-01-29T03:23:48.619Z,101618.91
2023-01-29T03:26:40.525Z,101632.22
2023-01-29T03:29:30.584Z,101628.78
2023-01-29T03:32:07.902Z,101627.06
2023-01-29T03:34:53.056Z,101632.16
2023-01-29T03:37:46.907Z,101627.59
2023-01-29T03:40:15.972Z,101623.91
2023-01-29T03:43:25.862Z,101624.69
2023-01-29T03:46:32.136Z,101624.63
2023-01-29T03:49:43.975Z,101620.13
2023-01-29T03:52:48.509Z,101615.91
2023-01-29T03:56:03.760Z,101623.84
2023-01-29T03:59:04.674Z,101623.66
2023-01-29T04:01:57.652Z,101620.22
2023-01-29T04:04:35.004Z,101615.56
2023-01-29T04:07:13.960Z,101627.09
2023-01-29T04:10:00.756Z,101631.41
2023-01-29T04:12:41.113Z,101627.94
2023-01-29T04:15:15.445Z,101619.88
2023-01-29T04:17:49.712Z,101637.16
2023-01-29T04:20:17.563Z,101630.88
2023-01-29T04:22:50.380Z,101631.66
2023-01-29T04:25:36.317Z,101626.13
2023-01-29T04:28:46.767Z,101625.22
2023-01-29T04:31:14.724Z,101627.81
2023-01-29T04:34:20.844Z,101621.50
2023-01-29T04:37:13.348Z,101617.88
2023-01-29T04:39:56.631Z,101605.50
2023-01-29T04:42:41.597Z,101603.44
2023-01-29T04:45:35.093Z,101594.59
2023-01-29T04:48:30.797Z,101600.88
2023-01-29T04:51:38.638Z,101602.66
2023-01-29T04:54:23.436Z,101583.91
2023-01-29T04:57:37.027Z,101606.03
2023-01-29T05:00:27.539Z,101582.03
2023-01-29T05:02:56.400Z,101590.97
2023-01-29T05:05:23.155Z,101587.44
2023-01-29T05:07:51.421Z,101589.00
2023-01-29T05:10:23.005Z,101575.66
2023-01-29T05:13:02.739Z,101578.31
2023-01-29T05:15:51.334Z,101579.09
2023-01-29T05:18:18.846Z,101572.06
2023-01-29T05:20:48.243Z,101566.53
2023-01-29T05:23:21.364Z,101580.75
2023-01-29T05:25:53.598Z,101583.41
2023-01-29T05:28:20.224Z,101582.47
2023-01-29T05:30:52.182Z,101582.38
2023-01-29T05:33:31.290Z,101577.13
2023-01-29T05:36:00.269Z,101578.84
2023-01-29T05:38:27.038Z,101563.81
2023-01-29T05:40:54.699Z,101552.16
2023-01-29T05:43:26.085Z,101562.00
2023-01-29T05:46:01.319Z,101556.72
2023-01-29T05:48:32.767Z,101550.34
2023-01-29T05:51:05.238Z,101542.47
2023-01-29T05:53:38.694Z,101533.50
2023-01-29T05:56:08.713Z,101531.78
2023-01-29T05:58:39.214Z,101529.13
2023-01-29T06:01:20.067Z,101529.97
2023-01-29T06:03:47.874Z,101513.28
2023-01-29T06:06:16.089Z,101501.75
2023-01-29T06:08:43.552Z,101494.53
2023-01-29T06:11:13.490Z,101488.22
2023-01-29T06:13:43.169Z,101487.28
2023-01-29T06:16:13.132Z,101499.66
2023-01-29T06:18:44.176Z,101509.28
2023-01-29T06:21:14.101Z,101523.59
2023-01-29T06:23:46.729Z,101511.19
2023-01-29T06:26:18.877Z,101509.41
2023-01-29T06:28:50.039Z,101504.94
2023-01-29T06:31:37.894Z,101504.94
2023-01-29T06:34:06.678Z,101495.28
2023-01-29T06:36:33.835Z,101484.50
2023-01-29T06:39:00.486Z,101484.44
2023-01-29T06:41:27.249Z,101486.06
2023-01-29T06:43:54.115Z,101495.88
2023-01-29T06:46:21.117Z,101492.34
2023-01-29T06:48:47.813Z,101472.84
2023-01-29T06:51:14.610Z,101465.59
2023-01-29T08:04:20.747Z,101457.44
2023-01-29T08:06:47.369Z,101453.91
2023-01-29T08:09:14.168Z,101446.91
2023-01-29T08:11:44.039Z,101455.88
2023-01-29T08:14:10.777Z,101455.97
2023-01-29T08:16:37.466Z,101457.78
2023-01-29T08:19:04.266Z,101453.56
2023-01-29T08:21:31.030Z,101457.97
2023-01-29T08:23:57.762Z,101450.75
2023-01-29T08:26:26.253Z,101449.50
2023-01-29T08:28:55.984Z,101443.41
2023-01-29T08:31:22.996Z,101448.66
2023-01-29T08:33:49.874Z,101433.50
2023-01-29T09:08:48.236Z,101411.00
2023-01-29T10:13:25.562Z,101349.16
2023-01-29T10:16:35.375Z,101345.44
2023-01-29T10:45:59.384Z,101303.44
2023-01-29T10:49:12.326Z,101300.19
2023-01-29T12:46:30.554Z,101097.09
2023-01-29T13:10:41.931Z,101067.16
2023-01-29T13:13:54.619Z,101070.88
2023-01-29T13:16:48.461Z,101068.19
2023-01-29T13:19:49.645Z,101056.84
2023-01-29T13:22:35.419Z,101049.28
2023-01-29T13:25:05.696Z,101045.19
2023-01-29T13:27:36.686Z,101044.50
2023-01-29T13:30:06.670Z,101039.19
2023-01-29T13:32:36.418Z,101044.63
2023-01-29T13:35:14.221Z,101043.78
2023-01-29T13:37:53.367Z,101031.38
2023-01-29T13:40:29.634Z,101033.28
2023-01-29T13:43:01.203Z,101031.38
2023-01-29T13:45:47.103Z,101027.97
2023-01-29T13:48:36.923Z,101023.59
2023-01-29T13:51:17.046Z,101020.16
2023-01-29T13:54:02.424Z,101013.09
2023-01-29T13:57:00.605Z,101006.81
2023-01-29T13:59:55.388Z,101001.28
2023-01-29T14:02:31.669Z,100998.63
2023-01-29T14:05:29.489Z,100997.00
2023-01-29T14:08:35.885Z,100991.75
2023-01-29T14:11:17.910Z,100990.91
2023-01-29T14:13:54.316Z,100981.09
2023-01-29T14:16:20.939Z,100975.88
2023-01-29T14:19:19.028Z,100977.78
2023-01-29T14:22:00.197Z,100984.06
2023-01-29T14:24:31.378Z,100966.56
2023-01-29T14:27:00.522Z,100975.44
2023-01-29T14:29:44.518Z,100968.56
2023-01-29T14:32:24.906Z,100971.31
2023-01-29T14:35:03.497Z,100962.56
2023-01-29T14:37:54.596Z,100955.53
2023-01-29T14:40:29.723Z,100949.38
2023-01-29T14:43:19.938Z,100955.53
2023-01-29T14:46:34.027Z,100940.47
2023-01-29T14:49:01.652Z,100940.38
2023-01-29T14:51:44.937Z,100931.44
2023-01-29T14:54:33.654Z,100930.56
2023-01-29T14:57:10.962Z,100923.44
2023-01-29T15:00:08.674Z,100918.97
2023-01-29T15:02:45.628Z,100917.16
2023-01-29T15:05:31.253Z,100914.69
2023-01-29T15:08:32.665Z,100909.16
2023-01-29T15:11:35.354Z,100903.81
2023-01-29T15:14:44.524Z,100898.47
2023-01-29T15:17:41.759Z,100895.81
2023-01-29T15:20:43.821Z,100881.50
2023-01-29T15:23:35.121Z,100875.13
2023-01-29T15:26:17.329Z,100863.72
2023-01-29T15:28:51.865Z,100867.22
2023-01-29T15:31:29.340Z,100860.75
2023-01-29T15:33:57.293Z,100859.88
2023-01-29T15:36:30.026Z,100847.59
2023-01-29T15:39:12.081Z,100843.75
2023-01-29T15:41:41.351Z,100840.16
2023-01-29T15:44:23.016Z,100829.50
2023-01-29T15:47:09.934Z,100820.72
2023-01-29T15:49:46.522Z,100823.19
2023-01-29T15:52:28.879Z,100840.03
2023-01-29T15:55:04.273Z,100831.19
2023-01-29T15:57:45.114Z,100831.28
2023-01-29T16:00:27.589Z,100831.09
2023-01-29T16:02:57.050Z,100826.59
2023-01-29T16:05:33.060Z,100815.94
2023-01-29T16:08:03.850Z,100822.09
2023-01-29T16:10:33.589Z,100824.91
2023-01-29T16:13:03.132Z,100806.94
2023-01-29T16:15:53.724Z,100807.09
2023-01-29T16:18:35.320Z,100816.91
2023-01-29T16:21:38.635Z,100803.44
2023-01-29T16:24:19.605Z,100796.28
2023-01-29T16:26:56.979Z,100791.91
2023-01-29T16:29:32.846Z,100790.84
2023-01-29T16:32:10.387Z,100784.56
2023-01-29T16:34:56.007Z,100777.31
2023-01-29T16:37:32.114Z,100784.13
2023-01-29T16:40:15.707Z,100779.69
2023-01-29T16:42:45.735Z,100765.38
2023-01-29T16:45:28.861Z,100780.53
2023-01-29T16:48:33.366Z,100765.47
2023-01-29T16:51:13.846Z,100761.00
2023-01-29T16:54:23.568Z,100747.84
2023-01-29T16:57:02.034Z,100747.75
2023-01-29T16:59:46.712Z,100744.34
2023-01-29T17:02:27.764Z,100738.91
2023-01-29T17:05:19.959Z,100736.13
2023-01-29T17:07:47.677Z,100734.53
2023-01-29T17:10:28.946Z,100738.16
2023-01-29T17:13:08.380Z,100739.09
2023-01-29T17:15:46.759Z,100718.84
2023-01-29T17:18:24.105Z,100715.31
2023-01-29T17:20:54.775Z,100705.72
2023-01-29T17:23:23.532Z,100707.31
2023-01-29T17:25:51.724Z,100703.16
2023-01-29T17:28:19.397Z,100694.41
2023-01-29T17:31:06.176Z,100685.56
2023-01-29T17:33:45.778Z,100682.16
2023-01-29T17:36:17.300Z,100682.91
2023-01-29T17:38:47.077Z,100673.19
2023-01-29T17:41:35.516Z,100664.31
2023-01-29T17:44:02.251Z,100637.88
2023-01-29T17:46:29.042Z,100630.81
2023-01-29T17:48:58.225Z,100629.88
2023-01-29T17:51:25.136Z,100627.22
2023-01-29T17:53:52.050Z,100623.28
2023-01-29T17:56:30.597Z,100619.88
2023-01-29T17:59:00.857Z,100611.13
2023-01-29T18:01:27.730Z,100624.22
2023-01-29T18:03:57.282Z,100621.13
2023-01-29T18:06:31.872Z,100607.94
2023-01-29T18:08:58.730Z,100612.28
2023-01-29T18:11:25.948Z,100618.59
2023-01-29T18:13:56.493Z,100601.00
2023-01-29T18:16:24.743Z,100599.28
2023-01-29T18:18:55.052Z,100591.53
2023-01-29T18:21:24.412Z,100582.88
2023-01-29T18:24:00.581Z,100581.38
2023-01-29T18:26:27.312Z,100568.03
2023-01-29T18:28:57.139Z,100573.59
2023-01-29T18:31:23.765Z,100564.75
2023-01-29T20:18:44.980Z,100387.50
2023-01-29T21:18:46.226Z,100293.69
2023-01-29T21:21:13.277Z,100280.38
2023-01-29T22:33:04.584Z,100123.09
2023-01-29T22:35:34.340Z,100102.22
2023-01-29T22:38:10.231Z,100103.06
2023-01-29T22:40:36.978Z,100096.53
2023-01-29T22:43:11.274Z,100063.53
2023-01-29T22:45:41.972Z,100075.66
2023-01-29T22:48:08.799Z,100064.88
2023-01-29T22:50:35.500Z,100046.19
2023-01-29T22:53:08.632Z,100057.13
2023-01-29T22:55:44.081Z,100046.19
2023-01-29T22:58:13.143Z,100026.66
2023-01-29T23:00:42.955Z,100015.13
2023-01-29T23:03:12.632Z,100016.56
2023-01-29T23:05:45.543Z,100007.13
2023-01-29T23:08:12.238Z,100019.25
2023-01-29T23:10:39.086Z,100004.94
2023-01-29T23:13:08.366Z,99998.16
2023-01-29T23:15:47.225Z,100000.56
2023-01-29T23:18:13.945Z,99996.41
2023-01-29T23:20:44.328Z,99989.50
2023-01-29T23:23:11.071Z,99993.16
2023-01-29T23:25:56.389Z,99985.16
2023-01-29T23:28:23.088Z,99986.13
2023-01-29T23:30:52.138Z,99979.09
2023-01-29T23:33:19.077Z,99991.22
2023-01-29T23:35:48.921Z,99985.88
2023-01-29T23:38:26.823Z,99968.38
2023-01-29T23:43:38.543Z,99950.19
2023-01-29T23:46:08.712Z,99942.06
2023-01-29T23:48:37.955Z,99952.75
2023-01-29T23:51:13.117Z,99941.47
2023-01-29T23:53:42.817Z,99938.81
2023-01-29T23:56:11.661Z,99920.00
2023-01-29T23:58:38.421Z,99929.47
